createdAt,value
2022-08-23T00:01:35.609Z,7.00
2022-08-23T00:04:10.152Z,7.30
2022-08-23T00:06:39.936Z,6.40
2022-08-23T00:09:07.626Z,6.80
2022-08-23T00:11:37.216Z,7.10
2022-08-23T00:14:13.965Z,6.80
2022-08-23T00:16:41.965Z,6.00
2022-08-23T00:19:13.475Z,6.40
2022-08-23T00:21:41.807Z,6.87
2022-08-23T00:24:12.244Z,6.70
2022-08-23T00:26:49.890Z,6.55
2022-08-23T00:29:18.574Z,6.30
2022-08-23T00:31:47.136Z,6.47
2022-08-23T00:34:15.352Z,6.83
2022-08-23T00:36:45.197Z,6.70
2022-08-23T00:39:13.034Z,7.40
2022-08-23T00:41:40.771Z,6.90
2022-08-23T00:44:38.917Z,8.02
2022-08-23T00:47:26.887Z,8.23
2022-08-23T00:50:23.347Z,8.63
2022-08-23T00:53:07.218Z,8.77
2022-08-23T00:55:35.641Z,9.13
2022-08-23T00:58:03.920Z,8.63
2022-08-23T01:00:32.901Z,9.03
2022-08-23T01:03:00.729Z,8.82
2022-08-23T01:05:43.444Z,9.05
2022-08-23T01:08:12.892Z,9.15
2022-08-23T01:10:48.283Z,9.38
2022-08-23T01:13:30.442Z,9.70
2022-08-23T01:16:04.124Z,9.35
2022-08-23T01:18:32.848Z,8.80
2022-08-23T01:21:17.089Z,8.68
2022-08-23T01:23:52.383Z,8.52
2022-08-23T01:26:22.628Z,8.30
2022-08-23T01:28:51.818Z,8.30
2022-08-23T01:31:22.394Z,8.45
2022-08-23T01:33:57.317Z,8.20
2022-08-23T01:36:26.123Z,8.88
2022-08-23T01:38:54.663Z,8.90
2022-08-23T01:41:22.549Z,8.65
2022-08-23T01:43:51.385Z,8.75
2022-08-23T01:46:23.560Z,8.65
2022-08-23T01:48:51.650Z,9.52
2022-08-23T01:51:20.599Z,9.13
2022-08-23T01:53:48.406Z,9.30
2022-08-23T01:56:31.469Z,9.48
2022-08-23T01:59:11.119Z,8.98
2022-08-23T02:01:44.436Z,8.98
2022-08-23T02:04:11.895Z,8.73
2022-08-23T02:06:39.686Z,10.20
2022-08-23T02:09:17.730Z,9.93
2022-08-23T02:11:47.958Z,9.55
2022-08-23T02:14:21.472Z,9.85
2022-08-23T02:17:04.532Z,9.47
2022-08-23T02:19:37.954Z,9.63
2022-08-23T02:22:07.383Z,9.40
2022-08-23T02:24:36.078Z,10.43
2022-08-23T02:27:05.727Z,9.30
2022-08-23T02:29:39.452Z,9.90
2022-08-23T02:32:11.127Z,9.52
2022-08-23T02:34:40.260Z,9.43
2022-08-23T02:37:11.713Z,9.75
2022-08-23T02:39:40.433Z,9.63
2022-08-23T02:42:11.765Z,8.97
2022-08-23T02:44:43.006Z,9.85
2022-08-23T02:47:12.190Z,9.70
2022-08-23T02:49:43.606Z,8.73
2022-08-23T02:52:11.082Z,8.38
2022-08-23T02:54:40.077Z,8.30
2022-08-23T02:57:08.597Z,8.68
2022-08-23T02:59:36.179Z,7.72
2022-08-23T03:02:03.634Z,7.95
2022-08-23T03:04:36.408Z,7.95
2022-08-23T03:07:04.585Z,8.10
2022-08-23T03:09:32.202Z,7.97
2022-08-23T03:11:59.607Z,8.15
2022-08-23T03:14:28.285Z,8.60
2022-08-23T03:16:57.477Z,7.65
2022-08-23T03:19:26.193Z,7.70
2022-08-23T03:21:53.503Z,7.93
2022-08-23T03:24:22.689Z,8.38
2022-08-23T03:26:50.611Z,8.15
2022-08-23T03:29:19.278Z,8.00
2022-08-23T03:32:05.512Z,8.43
2022-08-23T03:34:37.330Z,9.30
2022-08-23T03:37:07.335Z,8.95
2022-08-23T03:39:35.668Z,9.48
2022-08-23T03:42:03.149Z,9.43
2022-08-23T03:44:33.402Z,9.33
2022-08-23T03:47:00.841Z,8.93
2022-08-23T03:49:28.328Z,9.93
2022-08-23T03:51:57.509Z,9.20
2022-08-23T03:54:25.297Z,10.20
2022-08-23T03:57:03.269Z,9.73
2022-08-23T03:59:36.962Z,10.45
2022-08-23T04:02:07.927Z,10.75
2022-08-23T04:04:35.764Z,10.02
2022-08-23T04:07:36.489Z,9.70
2022-08-23T04:10:04.925Z,9.67
2022-08-23T04:12:36.888Z,9.70
2022-08-23T04:15:07.028Z,9.27
2022-08-23T04:17:37.083Z,8.95
2022-08-23T04:20:06.820Z,9.27
2022-08-23T04:22:39.347Z,9.13
2022-08-23T04:25:32.858Z,8.85
2022-08-23T04:27:55.265Z,8.73
2022-08-23T04:30:23.086Z,8.82
2022-08-23T04:32:51.331Z,9.30
2022-08-23T04:35:18.781Z,8.53
2022-08-23T04:37:46.664Z,8.60
2022-08-23T04:40:32.765Z,9.25
2022-08-23T04:43:00.234Z,9.10
2022-08-23T04:45:27.842Z,9.18
2022-08-23T04:47:55.458Z,9.87
2022-08-23T04:50:22.969Z,8.32
2022-08-23T04:53:08.920Z,8.75
2022-08-23T04:55:43.941Z,8.90
2022-08-23T04:58:11.507Z,9.32
2022-08-23T05:00:50.852Z,8.53
2022-08-23T05:03:23.127Z,8.65
2022-08-23T05:05:54.695Z,9.10
2022-08-23T05:08:27.914Z,8.68
2022-08-23T05:10:55.733Z,8.98
2022-08-23T05:13:23.306Z,8.73
2022-08-23T05:15:52.934Z,9.02
2022-08-23T05:18:23.355Z,9.20
2022-08-23T05:20:52.026Z,9.82
2022-08-23T05:23:20.206Z,9.02
2022-08-23T05:26:01.269Z,10.27
2022-08-23T05:28:35.294Z,10.27
2022-08-23T05:31:21.045Z,9.65
2022-08-23T05:33:54.322Z,10.10
2022-08-23T05:36:29.928Z,9.82
2022-08-23T05:38:57.498Z,10.70
2022-08-23T05:41:36.999Z,10.65
2022-08-23T05:44:07.149Z,11.13
2022-08-23T05:46:36.944Z,10.93
2022-08-23T05:49:21.476Z,10.30
2022-08-23T05:51:51.704Z,10.03
2022-08-23T05:54:21.152Z,10.18
2022-08-23T05:57:02.404Z,10.20
2022-08-23T05:59:30.064Z,8.68
2022-08-23T06:01:57.929Z,8.90
2022-08-23T06:04:25.368Z,8.80
2022-08-23T06:06:53.540Z,8.80
2022-08-23T06:09:21.158Z,8.50
2022-08-23T06:11:49.116Z,7.60
2022-08-23T06:14:18.025Z,8.32
2022-08-23T06:16:51.607Z,8.43
2022-08-23T06:19:24.235Z,8.77
2022-08-23T06:22:06.814Z,8.70
2022-08-23T06:24:39.073Z,8.43
2022-08-23T06:27:16.955Z,7.90
2022-08-23T06:29:46.417Z,8.33
2022-08-23T06:32:31.889Z,8.52
2022-08-23T06:35:39.421Z,8.43
2022-08-23T06:38:11.488Z,8.25
2022-08-23T06:40:48.362Z,8.35
2022-08-23T06:43:29.672Z,7.60
2022-08-23T06:46:19.670Z,8.20
2022-08-23T06:48:48.113Z,7.50
2022-08-23T06:51:30.195Z,7.97
2022-08-23T06:54:16.184Z,7.38
2022-08-23T06:57:08.567Z,7.23
2022-08-23T07:00:01.946Z,7.18
2022-08-23T07:02:55.371Z,7.63
2022-08-23T07:05:59.616Z,7.85
2022-08-23T07:08:29.961Z,8.02
2022-08-23T07:10:57.691Z,7.67
2022-08-23T07:13:25.682Z,8.25
2022-08-23T07:15:59.166Z,8.52
2022-08-23T07:18:27.360Z,8.00
2022-08-23T07:21:00.064Z,7.38
2022-08-23T07:23:28.095Z,7.97
2022-08-23T07:25:56.201Z,7.78
2022-08-23T07:28:27.276Z,8.38
2022-08-23T07:30:56.258Z,7.03
2022-08-23T07:33:23.772Z,7.18
2022-08-23T07:36:09.387Z,7.53
2022-08-23T07:38:37.086Z,6.30
2022-08-23T07:41:04.890Z,7.05
2022-08-23T07:43:34.293Z,6.68
2022-08-23T07:46:04.289Z,6.45
2022-08-23T07:48:52.940Z,6.23
2022-08-23T07:51:23.429Z,7.10
2022-08-23T07:53:52.216Z,6.82
2022-08-23T07:56:21.791Z,6.90
2022-08-23T07:59:07.713Z,6.43
2022-08-23T08:01:41.500Z,6.07
2022-08-23T08:04:09.354Z,6.80
2022-08-23T08:07:10.486Z,7.00
2022-08-23T08:09:41.346Z,6.20
2022-08-23T08:12:10.198Z,6.75
2022-08-23T08:14:38.932Z,6.33
2022-08-23T08:17:07.285Z,6.68
2022-08-23T08:20:10.342Z,6.60
2022-08-23T08:22:58.408Z,5.90
2022-08-23T08:25:34.386Z,7.10
2022-08-23T08:28:04.919Z,6.10
2022-08-23T08:30:33.684Z,5.63
2022-08-23T08:33:03.385Z,6.60
2022-08-23T08:35:32.553Z,6.28
2022-08-23T08:38:02.315Z,6.70
2022-08-23T08:40:35.874Z,6.33
2022-08-23T08:43:34.846Z,6.75
2022-08-23T08:46:28.387Z,6.55
2022-08-23T08:48:59.381Z,6.38
2022-08-23T08:51:51.911Z,6.68
2022-08-23T08:54:23.305Z,7.73
2022-08-23T08:56:56.181Z,7.20
2022-08-23T08:59:29.443Z,7.18
2022-08-23T09:01:58.758Z,7.50
2022-08-23T09:04:37.524Z,7.18
2022-08-23T09:07:31.127Z,7.47
2022-08-23T09:10:26.394Z,7.25
2022-08-23T09:13:22.937Z,7.53
2022-08-23T09:16:06.267Z,8.18
2022-08-23T09:18:36.389Z,7.93
2022-08-23T09:21:07.394Z,7.80
2022-08-23T09:23:40.958Z,7.43
2022-08-23T09:26:25.841Z,7.10
2022-08-23T09:29:02.922Z,7.35
2022-08-23T09:31:42.210Z,8.00
2022-08-23T09:34:31.065Z,7.60
2022-08-23T09:37:22.481Z,7.40
2022-08-23T09:40:17.063Z,6.97
2022-08-23T09:42:47.520Z,7.28
2022-08-23T09:45:50.067Z,7.93
2022-08-23T09:48:39.878Z,7.87
2022-08-23T09:51:35.122Z,7.35
2022-08-23T09:54:24.582Z,7.50
2022-08-23T09:56:55.689Z,7.10
2022-08-23T09:59:26.603Z,7.28
2022-08-23T10:02:02.069Z,5.40
2022-08-23T10:04:46.264Z,6.57
2022-08-23T10:07:40.220Z,5.95
2022-08-23T10:10:23.551Z,6.22
2022-08-23T10:12:54.449Z,5.85
2022-08-23T10:15:44.963Z,6.50
2022-08-23T10:18:18.134Z,7.00
2022-08-23T10:21:27.678Z,8.23
2022-08-23T10:24:18.533Z,8.13
2022-08-23T10:27:49.662Z,6.30
2022-08-23T10:30:23.875Z,5.97
2022-08-23T10:33:01.001Z,7.47
2022-08-23T10:35:39.930Z,8.15
2022-08-23T10:38:24.025Z,7.28
2022-08-23T10:41:21.345Z,8.60
2022-08-23T10:44:27.261Z,10.43
2022-08-23T10:47:14.053Z,9.98
2022-08-23T10:49:42.926Z,10.60
2022-08-23T10:52:19.525Z,10.82
2022-08-23T10:55:06.284Z,11.70
2022-08-23T10:57:41.168Z,11.40
2022-08-23T11:00:16.273Z,11.60
2022-08-23T11:02:53.570Z,11.52
2022-08-23T11:05:31.947Z,12.07
2022-08-23T11:08:11.537Z,11.35
2022-08-23T11:10:40.124Z,11.67
2022-08-23T11:13:13.968Z,10.90
2022-08-23T11:15:56.770Z,10.90
2022-08-23T11:18:31.277Z,10.18
2022-08-23T11:21:31.856Z,10.32
2022-08-23T11:24:05.097Z,9.70
2022-08-23T11:26:41.790Z,10.63
2022-08-23T11:29:11.082Z,10.52
2022-08-23T11:31:51.011Z,10.88
2022-08-23T11:34:43.692Z,10.38
2022-08-23T11:37:20.490Z,8.67
2022-08-23T11:39:58.698Z,8.65
2022-08-23T11:42:40.644Z,8.88
2022-08-23T11:45:28.168Z,8.50
2022-08-23T11:48:15.097Z,8.27
2022-08-23T11:50:57.484Z,8.43
2022-08-23T11:53:49.989Z,8.35
2022-08-23T11:56:46.131Z,8.07
2022-08-23T11:59:58.244Z,7.43
2022-08-23T12:02:41.287Z,7.28
2022-08-23T12:05:23.805Z,7.40
2022-08-23T12:07:53.341Z,7.30
2022-08-23T12:10:41.791Z,7.40
2022-08-23T12:13:21.561Z,7.22
2022-08-23T12:16:17.084Z,6.85
2022-08-23T12:18:48.071Z,6.80
2022-08-23T12:21:42.002Z,6.05
2022-08-23T12:24:27.560Z,6.20
2022-08-23T12:26:58.545Z,5.55
2022-08-23T12:29:45.558Z,5.80
2022-08-23T12:32:25.170Z,5.47
2022-08-23T12:35:06.652Z,5.57
2022-08-23T12:37:45.429Z,5.80
2022-08-23T12:40:35.178Z,5.40
2022-08-23T12:43:14.879Z,5.93
2022-08-23T12:45:54.467Z,5.40
2022-08-23T12:48:25.340Z,5.35
2022-08-23T12:51:01.740Z,6.20
2022-08-23T12:53:42.653Z,5.72
2022-08-23T12:56:31.872Z,5.78
2022-08-23T12:59:07.691Z,6.53
2022-08-23T13:01:38.692Z,6.50
2022-08-23T13:04:12.997Z,6.28
2022-08-23T13:06:57.891Z,6.05
2022-08-23T13:09:33.896Z,6.00
2022-08-23T13:12:02.666Z,6.13
2022-08-23T13:14:33.419Z,6.45
2022-08-23T13:17:31.697Z,6.38
2022-08-23T13:20:01.492Z,6.07
2022-08-23T13:22:31.446Z,5.90
2022-08-23T13:25:28.009Z,6.30
2022-08-23T13:27:56.068Z,6.40
2022-08-23T13:30:32.707Z,6.25
2022-08-23T13:33:09.171Z,5.40
2022-08-23T13:35:39.308Z,6.13
2022-08-23T13:38:21.276Z,6.30
2022-08-23T13:41:04.120Z,6.40
2022-08-23T13:43:34.346Z,5.72
2022-08-23T13:46:12.808Z,6.05
2022-08-23T13:49:03.106Z,5.95
2022-08-23T13:51:39.935Z,6.17
2022-08-23T13:54:12.624Z,6.50
2022-08-23T13:56:51.713Z,6.72
2022-08-23T13:59:22.849Z,6.07
2022-08-23T14:01:53.664Z,6.20
2022-08-23T14:04:21.277Z,5.53
2022-08-23T14:06:49.412Z,5.85
2022-08-23T14:09:17.469Z,6.07
2022-08-23T14:11:46.095Z,6.35
2022-08-23T14:14:13.460Z,6.28
2022-08-23T14:16:41.632Z,7.00
2022-08-23T14:19:16.602Z,5.90
2022-08-23T14:22:00.352Z,6.78
2022-08-23T14:24:28.375Z,6.60
2022-08-23T14:26:56.789Z,6.43
2022-08-23T14:29:25.611Z,6.70
2022-08-23T14:31:52.956Z,6.22
2022-08-23T14:34:21.537Z,6.20
2022-08-23T14:39:37.578Z,4.22
2022-08-23T14:42:05.877Z,4.53
2022-08-23T14:44:36.010Z,4.55
2022-08-23T14:47:07.621Z,4.50
2022-08-23T14:49:35.197Z,4.20
2022-08-23T14:52:03.055Z,4.25
2022-08-23T14:54:30.408Z,4.10
2022-08-23T14:56:57.776Z,4.32
2022-08-23T14:59:25.228Z,5.15
2022-08-23T15:01:54.233Z,5.00
2022-08-23T15:04:23.855Z,5.00
2022-08-23T15:07:16.620Z,4.50
2022-08-23T15:09:40.516Z,5.45
2022-08-23T15:14:57.093Z,5.72
2022-08-23T15:17:30.357Z,5.78
2022-08-23T15:19:59.712Z,5.50
2022-08-23T15:22:27.079Z,5.70
2022-08-23T15:24:54.379Z,5.57
2022-08-23T15:27:23.096Z,5.78
2022-08-23T15:29:50.469Z,5.70
2022-08-23T15:32:22.718Z,5.70
2022-08-23T15:34:50.994Z,6.00
2022-08-23T15:37:21.278Z,6.32
2022-08-23T15:39:49.907Z,6.25
2022-08-23T15:42:20.547Z,5.43
2022-08-23T15:44:49.372Z,5.90
2022-08-23T15:47:25.616Z,5.68
2022-08-23T15:49:53.300Z,5.93
2022-08-23T15:52:21.165Z,5.57
2022-08-23T15:54:48.778Z,5.72
2022-08-23T15:57:20.561Z,5.60
2022-08-23T15:59:48.259Z,6.18
2022-08-23T16:02:15.842Z,6.93
2022-08-23T16:04:43.490Z,6.72
2022-08-23T16:07:14.712Z,6.78
2022-08-23T16:09:42.701Z,6.83
2022-08-23T16:12:10.507Z,6.95
2022-08-23T16:14:38.805Z,6.60
2022-08-23T16:17:07.618Z,6.75
2022-08-23T16:19:36.764Z,7.15
2022-08-23T16:22:04.596Z,7.10
2022-08-23T16:24:32.190Z,7.45
2022-08-23T16:26:59.598Z,7.70
2022-08-23T16:29:32.173Z,7.07
2022-08-23T16:31:59.859Z,7.20
2022-08-23T16:34:27.411Z,7.40
2022-08-23T16:36:58.229Z,6.90
2022-08-23T16:39:26.912Z,6.85
2022-08-23T16:41:54.496Z,7.43
2022-08-23T16:44:21.981Z,6.97
2022-08-23T16:46:49.448Z,7.33
2022-08-23T16:49:19.016Z,7.43
2022-08-23T16:51:47.340Z,7.25
2022-08-23T16:54:15.373Z,7.10
2022-08-23T16:56:43.647Z,7.10
2022-08-23T16:59:12.357Z,8.27
2022-08-23T17:01:53.020Z,7.38
2022-08-23T17:04:21.909Z,7.90
2022-08-23T17:06:49.599Z,8.15
2022-08-23T17:09:17.145Z,8.07
2022-08-23T17:11:45.273Z,9.70
2022-08-23T17:14:13.067Z,8.88
2022-08-23T17:16:42.007Z,8.63
2022-08-23T17:19:09.442Z,9.05
2022-08-23T17:21:37.839Z,9.75
2022-08-23T17:24:05.465Z,9.33
2022-08-23T17:26:33.511Z,9.90
2022-08-23T17:29:02.248Z,10.13
2022-08-23T17:31:29.813Z,10.60
2022-08-23T17:34:02.820Z,10.98
2022-08-23T17:36:34.353Z,11.87
2022-08-23T17:39:03.541Z,10.20
2022-08-23T17:41:35.290Z,9.95
2022-08-23T17:44:07.802Z,10.48
2022-08-23T17:46:36.761Z,10.25
2022-08-23T17:49:05.672Z,9.63
2022-08-23T17:51:34.288Z,10.20
2022-08-23T17:54:03.290Z,11.25
2022-08-23T17:56:31.304Z,10.82
2022-08-23T17:58:58.998Z,11.75
2022-08-23T18:01:27.707Z,11.33
2022-08-23T18:03:55.864Z,11.82
2022-08-23T18:06:25.767Z,11.98
2022-08-23T18:08:53.194Z,11.38
2022-08-23T18:11:20.634Z,11.13
2022-08-23T18:13:48.853Z,11.10
2022-08-23T18:16:16.571Z,12.40
2022-08-23T18:18:43.990Z,12.05
2022-08-23T18:21:14.681Z,11.88
2022-08-23T18:23:42.165Z,12.63
2022-08-23T18:26:33.972Z,11.87
2022-08-23T18:29:01.633Z,12.10
2022-08-23T18:31:29.609Z,12.05
2022-08-23T18:34:00.368Z,10.82
2022-08-23T18:36:29.604Z,12.38
2022-08-23T18:38:57.543Z,13.50
2022-08-23T18:41:24.981Z,10.25
2022-08-23T18:43:52.626Z,10.07
2022-08-23T18:46:21.112Z,9.38
2022-08-23T18:48:53.433Z,9.65
2022-08-23T18:51:22.448Z,9.83
2022-08-23T18:53:50.110Z,11.05
2022-08-23T18:56:17.683Z,10.93
2022-08-23T18:58:45.760Z,11.05
2022-08-23T19:01:35.335Z,10.65
2022-08-23T19:04:06.260Z,11.87
2022-08-23T19:06:34.900Z,10.93
2022-08-23T19:09:02.302Z,12.80
2022-08-23T19:11:30.490Z,11.77
2022-08-23T19:13:59.345Z,10.98
2022-08-23T19:16:27.099Z,10.77
2022-08-23T19:18:55.356Z,10.38
2022-08-23T19:21:25.416Z,10.95
2022-08-23T19:23:55.782Z,9.88
2022-08-23T19:26:30.497Z,9.52
2022-08-23T19:29:08.726Z,9.70
2022-08-23T19:31:42.994Z,9.85
2022-08-23T19:34:11.643Z,10.30
2022-08-23T19:36:50.345Z,10.77
2022-08-23T19:39:26.057Z,10.88
2022-08-23T19:41:53.925Z,11.67
2022-08-23T19:44:21.609Z,11.90
2022-08-23T19:46:49.484Z,11.98
2022-08-23T19:49:16.985Z,12.32
2022-08-23T19:51:45.368Z,11.88
2022-08-23T19:54:13.533Z,10.60
2022-08-23T19:56:47.241Z,12.07
2022-08-23T19:59:19.977Z,11.18
2022-08-23T20:01:49.873Z,10.70
2022-08-23T20:04:18.552Z,10.90
2022-08-23T20:06:46.717Z,10.50
2022-08-23T20:09:14.174Z,10.15
2022-08-23T20:11:42.265Z,9.68
2022-08-23T20:14:10.824Z,10.18
2022-08-23T20:16:41.463Z,10.20
2022-08-23T20:19:10.769Z,9.63
2022-08-23T20:21:40.143Z,9.10
2022-08-23T20:24:10.439Z,9.70
2022-08-23T20:26:44.712Z,9.35
2022-08-23T20:29:17.734Z,9.48
2022-08-23T20:31:54.690Z,9.63
2022-08-23T20:34:23.661Z,9.40
2022-08-23T20:36:56.500Z,8.60
2022-08-23T20:39:24.823Z,8.57
2022-08-23T20:41:53.193Z,8.48
2022-08-23T20:44:25.661Z,9.37
2022-08-23T20:46:55.339Z,9.07
2022-08-23T20:49:25.647Z,9.50
2022-08-23T20:51:53.023Z,8.90
2022-08-23T20:54:21.017Z,9.25
2022-08-23T20:56:51.490Z,8.37
2022-08-23T20:59:19.808Z,8.70
2022-08-23T21:01:50.773Z,9.20
2022-08-23T21:04:18.935Z,9.20
2022-08-23T21:06:50.963Z,9.82
2022-08-23T21:09:27.717Z,9.80
2022-08-23T21:11:57.695Z,9.43
2022-08-23T21:14:25.457Z,8.93
2022-08-23T21:16:53.201Z,9.25
2022-08-23T21:19:20.883Z,9.98
2022-08-23T21:21:49.242Z,9.57
2022-08-23T21:24:16.751Z,9.18
2022-08-23T21:26:44.081Z,9.18
2022-08-23T21:29:11.739Z,9.90
2022-08-23T21:31:39.870Z,9.27
2022-08-23T21:34:08.484Z,8.13
2022-08-23T21:36:38.051Z,9.25
2022-08-23T21:39:05.872Z,9.45
2022-08-23T21:41:38.892Z,9.20
2022-08-23T21:44:14.057Z,9.38
2022-08-23T21:46:42.788Z,9.37
2022-08-23T21:49:16.607Z,8.32
2022-08-23T21:51:45.775Z,7.85
2022-08-23T21:54:14.368Z,7.75
2022-08-23T21:56:42.399Z,8.40
2022-08-23T21:59:12.760Z,7.57
2022-08-23T22:01:41.795Z,8.30
2022-08-23T22:04:11.974Z,7.35
2022-08-23T22:06:41.699Z,7.35
2022-08-23T22:09:16.437Z,7.32
2022-08-23T22:11:46.530Z,7.53
2022-08-23T22:14:21.102Z,7.22
2022-08-23T22:16:49.705Z,7.05
2022-08-23T22:19:23.009Z,7.30
2022-08-23T22:21:52.721Z,6.75
2022-08-23T22:24:25.654Z,6.50
2022-08-23T22:26:54.817Z,7.30
2022-08-23T22:29:22.547Z,6.53
2022-08-23T22:31:50.499Z,6.47
2022-08-23T22:34:17.840Z,6.80
2022-08-23T22:36:46.193Z,6.47
2022-08-23T22:39:19.021Z,6.55
2022-08-23T22:41:46.341Z,6.63
2022-08-23T22:44:14.128Z,7.05
2022-08-23T22:46:41.827Z,6.80
2022-08-23T22:49:09.654Z,6.83
2022-08-23T22:51:38.741Z,6.85
2022-08-23T22:54:10.998Z,6.85
2022-08-23T22:56:43.669Z,6.95
2022-08-23T22:59:11.977Z,6.97
2022-08-23T23:01:45.311Z,7.03
2022-08-23T23:04:17.046Z,7.25
2022-08-23T23:06:45.305Z,6.43
2022-08-23T23:09:13.903Z,7.15
2022-08-23T23:11:42.374Z,6.63
2022-08-23T23:14:11.576Z,7.27
2022-08-23T23:16:39.695Z,6.78
2022-08-23T23:19:26.163Z,6.88
2022-08-23T23:21:56.915Z,7.13
2022-08-23T23:24:30.976Z,7.40
2022-08-23T23:26:59.002Z,6.73
2022-08-23T23:29:27.607Z,7.13
2022-08-23T23:31:55.862Z,7.07
2022-08-23T23:34:24.062Z,6.80
2022-08-23T23:36:56.568Z,6.93
2022-08-23T23:39:25.147Z,6.77
2022-08-23T23:41:52.834Z,7.45
2022-08-23T23:44:29.264Z,7.80
2022-08-23T23:47:01.765Z,7.40
2022-08-23T23:49:32.315Z,7.25
2022-08-23T23:52:02.594Z,7.67
2022-08-23T23:54:30.008Z,7.25
2022-08-23T23:56:57.708Z,7.32
2022-08-23T23:59:26.669Z,8.05
